sensor_id;sensor_type;location;lat;lon;timestamp;temperature;humidity
3348;DHT22;1687;49.540;8.574;2024-01-11T00:00:15;-2.30;57.90
3348;DHT22;1687;49.540;8.574;2024-01-11T00:02:41;-2.40;57.90
3348;DHT22;1687;49.540;8.574;2024-01-11T00:05:07;-2.50;57.70
3348;DHT22;1687;49.540;8.574;2024-01-11T00:07:33;-2.50;57.90
3348;DHT22;1687;49.540;8.574;2024-01-11T00:10:01;-2.50;57.90
3348;DHT22;1687;49.540;8.574;2024-01-11T00:12:27;-2.60;57.80
3348;DHT22;1687;49.540;8.574;2024-01-11T00:14:53;-2.60;58.10
3348;DHT22;1687;49.540;8.574;2024-01-11T00:17:18;-2.50;58.30
3348;DHT22;1687;49.540;8.574;2024-01-11T00:19:44;-2.50;58.20
3348;DHT22;1687;49.540;8.574;2024-01-11T00:22:10;-2.50;58.30
3348;DHT22;1687;49.540;8.574;2024-01-11T00:24:35;-2.50;58.20
3348;DHT22;1687;49.540;8.574;2024-01-11T00:27:01;-2.70;57.90
3348;DHT22;1687;49.540;8.574;2024-01-11T00:29:27;-2.70;58.70
3348;DHT22;1687;49.540;8.574;2024-01-11T00:31:54;-2.70;58.30
3348;DHT22;1687;49.540;8.574;2024-01-11T00:34:19;-2.70;58.20
3348;DHT22;1687;49.540;8.574;2024-01-11T00:36:47;-2.80;58.20
3348;DHT22;1687;49.540;8.574;2024-01-11T00:39:12;-2.80;58.20
3348;DHT22;1687;49.540;8.574;2024-01-11T00:41:38;-2.90;58.20
3348;DHT22;1687;49.540;8.574;2024-01-11T00:44:04;-2.80;58.50
3348;DHT22;1687;49.540;8.574;2024-01-11T00:46:29;-2.90;58.30
3348;DHT22;1687;49.540;8.574;2024-01-11T00:48:55;-2.80;58.40
3348;DHT22;1687;49.540;8.574;2024-01-11T00:51:21;-2.80;58.70
3348;DHT22;1687;49.540;8.574;2024-01-11T00:53:47;-2.70;58.80
3348;DHT22;1687;49.540;8.574;2024-01-11T00:56:17;-2.60;59.00
3348;DHT22;1687;49.540;8.574;2024-01-11T00:58:43;-2.50;59.10
3348;DHT22;1687;49.540;8.574;2024-01-11T01:01:09;-2.40;59.10
3348;DHT22;1687;49.540;8.574;2024-01-11T01:03:35;-2.40;58.90
3348;DHT22;1687;49.540;8.574;2024-01-11T01:06:01;-2.50;58.90
3348;DHT22;1687;49.540;8.574;2024-01-11T01:08:28;-2.50;58.80
3348;DHT22;1687;49.540;8.574;2024-01-11T01:10:54;-2.60;58.50
3348;DHT22;1687;49.540;8.574;2024-01-11T01:13:19;-2.70;58.40
3348;DHT22;1687;49.540;8.574;2024-01-11T01:15:45;-2.70;58.70
3348;DHT22;1687;49.540;8.574;2024-01-11T01:18:10;-2.70;58.90
3348;DHT22;1687;49.540;8.574;2024-01-11T01:20:36;-2.60;59.20
3348;DHT22;1687;49.540;8.574;2024-01-11T01:23:02;-2.60;59.30
3348;DHT22;1687;49.540;8.574;2024-01-11T01:25:28;-2.50;59.20
3348;DHT22;1687;49.540;8.574;2024-01-11T01:27:54;-2.50;59.20
3348;DHT22;1687;49.540;8.574;2024-01-11T01:30:20;-2.50;59.10
3348;DHT22;1687;49.540;8.574;2024-01-11T01:32:46;-2.50;59.10
3348;DHT22;1687;49.540;8.574;2024-01-11T01:35:12;-2.50;59.00
3348;DHT22;1687;49.540;8.574;2024-01-11T01:37:37;-2.50;59.20
3348;DHT22;1687;49.540;8.574;2024-01-11T01:40:03;-2.50;59.30
3348;DHT22;1687;49.540;8.574;2024-01-11T01:42:29;-2.50;59.20
3348;DHT22;1687;49.540;8.574;2024-01-11T01:44:55;-2.50;59.30
3348;DHT22;1687;49.540;8.574;2024-01-11T01:47:21;-2.60;59.10
3348;DHT22;1687;49.540;8.574;2024-01-11T01:49:48;-2.60;59.10
3348;DHT22;1687;49.540;8.574;2024-01-11T01:52:15;-2.70;59.00
3348;DHT22;1687;49.540;8.574;2024-01-11T01:54:41;-2.80;58.90
3348;DHT22;1687;49.540;8.574;2024-01-11T01:57:08;-2.90;59.10
3348;DHT22;1687;49.540;8.574;2024-01-11T01:59:35;-2.80;59.40
3348;DHT22;1687;49.540;8.574;2024-01-11T02:02:04;-2.80;59.40
3348;DHT22;1687;49.540;8.574;2024-01-11T02:04:30;-2.80;59.40
3348;DHT22;1687;49.540;8.574;2024-01-11T02:06:56;-2.80;59.30
3348;DHT22;1687;49.540;8.574;2024-01-11T02:09:24;-2.80;59.40
3348;DHT22;1687;49.540;8.574;2024-01-11T02:11:51;-2.80;59.50
3348;DHT22;1687;49.540;8.574;2024-01-11T02:14:18;-2.80;59.50
3348;DHT22;1687;49.540;8.574;2024-01-11T02:16:44;-2.80;59.50
3348;DHT22;1687;49.540;8.574;2024-01-11T02:19:13;-2.90;59.20
3348;DHT22;1687;49.540;8.574;2024-01-11T02:21:44;-3.00;59.00
3348;DHT22;1687;49.540;8.574;2024-01-11T02:24:11;-3.20;58.90
3348;DHT22;1687;49.540;8.574;2024-01-11T02:27:01;-3.30;58.90
3348;DHT22;1687;49.540;8.574;2024-01-11T02:29:29;-3.30;59.10
3348;DHT22;1687;49.540;8.574;2024-01-11T02:32:00;-3.30;59.40
3348;DHT22;1687;49.540;8.574;2024-01-11T02:34:27;-3.20;59.60
3348;DHT22;1687;49.540;8.574;2024-01-11T02:36:54;-3.10;59.80
3348;DHT22;1687;49.540;8.574;2024-01-11T02:39:22;-3.00;59.90
3348;DHT22;1687;49.540;8.574;2024-01-11T02:41:50;-2.90;60.00
3348;DHT22;1687;49.540;8.574;2024-01-11T02:44:21;-2.80;60.00
3348;DHT22;1687;49.540;8.574;2024-01-11T02:46:47;-2.70;60.10
3348;DHT22;1687;49.540;8.574;2024-01-11T02:49:13;-2.70;60.00
3348;DHT22;1687;49.540;8.574;2024-01-11T02:51:38;-2.70;60.00
3348;DHT22;1687;49.540;8.574;2024-01-11T02:54:04;-2.60;60.10
3348;DHT22;1687;49.540;8.574;2024-01-11T02:56:30;-2.60;60.10
3348;DHT22;1687;49.540;8.574;2024-01-11T02:58:56;-2.60;59.90
3348;DHT22;1687;49.540;8.574;2024-01-11T03:01:22;-2.60;60.00
3348;DHT22;1687;49.540;8.574;2024-01-11T03:03:47;-2.60;59.80
3348;DHT22;1687;49.540;8.574;2024-01-11T03:06:13;-2.60;59.90
3348;DHT22;1687;49.540;8.574;2024-01-11T03:08:39;-2.60;60.10
3348;DHT22;1687;49.540;8.574;2024-01-11T03:11:05;-2.60;60.00
3348;DHT22;1687;49.540;8.574;2024-01-11T03:13:31;-2.60;60.20
3348;DHT22;1687;49.540;8.574;2024-01-11T03:15:57;-2.60;60.30
3348;DHT22;1687;49.540;8.574;2024-01-11T03:18:23;-2.60;60.10
3348;DHT22;1687;49.540;8.574;2024-01-11T03:20:48;-2.50;60.40
3348;DHT22;1687;49.540;8.574;2024-01-11T03:23:14;-2.50;60.40
3348;DHT22;1687;49.540;8.574;2024-01-11T03:25:40;-2.50;60.50
3348;DHT22;1687;49.540;8.574;2024-01-11T03:28:05;-2.40;60.30
3348;DHT22;1687;49.540;8.574;2024-01-11T03:30:31;-2.50;60.20
3348;DHT22;1687;49.540;8.574;2024-01-11T03:32:57;-2.60;60.10
3348;DHT22;1687;49.540;8.574;2024-01-11T03:35:22;-2.70;59.90
3348;DHT22;1687;49.540;8.574;2024-01-11T03:37:48;-2.70;60.00
3348;DHT22;1687;49.540;8.574;2024-01-11T03:40:14;-2.70;60.20
3348;DHT22;1687;49.540;8.574;2024-01-11T03:42:40;-2.70;60.30
3348;DHT22;1687;49.540;8.574;2024-01-11T03:45:07;-2.70;60.40
3348;DHT22;1687;49.540;8.574;2024-01-11T03:47:33;-2.70;60.20
3348;DHT22;1687;49.540;8.574;2024-01-11T03:49:58;-2.70;60.30
3348;DHT22;1687;49.540;8.574;2024-01-11T03:52:24;-2.70;60.40
3348;DHT22;1687;49.540;8.574;2024-01-11T03:54:50;-2.70;60.30
3348;DHT22;1687;49.540;8.574;2024-01-11T03:57:16;-2.70;60.60
3348;DHT22;1687;49.540;8.574;2024-01-11T03:59:42;-2.70;60.60
3348;DHT22;1687;49.540;8.574;2024-01-11T04:02:09;-2.70;60.60
3348;DHT22;1687;49.540;8.574;2024-01-11T04:04:34;-2.70;60.50
3348;DHT22;1687;49.540;8.574;2024-01-11T04:07:00;-2.70;60.60
3348;DHT22;1687;49.540;8.574;2024-01-11T04:09:26;-2.70;60.50
3348;DHT22;1687;49.540;8.574;2024-01-11T04:11:51;-2.80;61.10
3348;DHT22;1687;49.540;8.574;2024-01-11T04:14:17;-2.90;60.20
3348;DHT22;1687;49.540;8.574;2024-01-11T04:16:43;-2.90;60.20
3348;DHT22;1687;49.540;8.574;2024-01-11T04:19:09;-3.00;60.10
3348;DHT22;1687;49.540;8.574;2024-01-11T04:21:35;-3.10;60.00
3348;DHT22;1687;49.540;8.574;2024-01-11T04:24:04;-3.30;59.80
3348;DHT22;1687;49.540;8.574;2024-01-11T04:26:31;-3.30;60.10
3348;DHT22;1687;49.540;8.574;2024-01-11T04:28:56;-3.30;60.50
3348;DHT22;1687;49.540;8.574;2024-01-11T04:31:25;-3.20;60.60
3348;DHT22;1687;49.540;8.574;2024-01-11T04:33:51;-3.20;60.90
3348;DHT22;1687;49.540;8.574;2024-01-11T04:36:17;-3.20;60.60
3348;DHT22;1687;49.540;8.574;2024-01-11T04:38:43;-3.20;60.50
3348;DHT22;1687;49.540;8.574;2024-01-11T04:41:10;-3.30;60.20
3348;DHT22;1687;49.540;8.574;2024-01-11T04:43:40;-3.30;60.40
3348;DHT22;1687;49.540;8.574;2024-01-11T04:46:16;-3.40;60.40
3348;DHT22;1687;49.540;8.574;2024-01-11T04:48:44;-3.40;60.40
3348;DHT22;1687;49.540;8.574;2024-01-11T04:51:11;-3.40;60.60
3348;DHT22;1687;49.540;8.574;2024-01-11T04:53:41;-3.40;60.70
3348;DHT22;1687;49.540;8.574;2024-01-11T04:56:09;-3.40;60.70
3348;DHT22;1687;49.540;8.574;2024-01-11T04:58:35;-3.40;60.70
3348;DHT22;1687;49.540;8.574;2024-01-11T05:01:03;-3.50;60.30
3348;DHT22;1687;49.540;8.574;2024-01-11T05:03:30;-3.60;60.90
3348;DHT22;1687;49.540;8.574;2024-01-11T05:05:57;-3.60;60.50
3348;DHT22;1687;49.540;8.574;2024-01-11T05:08:26;-3.60;60.50
3348;DHT22;1687;49.540;8.574;2024-01-11T05:10:53;-3.70;60.90
3348;DHT22;1687;49.540;8.574;2024-01-11T05:13:18;-3.80;60.30
3348;DHT22;1687;49.540;8.574;2024-01-11T05:15:44;-3.70;60.90
3348;DHT22;1687;49.540;8.574;2024-01-11T05:18:10;-3.70;61.00
3348;DHT22;1687;49.540;8.574;2024-01-11T05:20:36;-3.60;61.20
3348;DHT22;1687;49.540;8.574;2024-01-11T05:23:02;-3.50;61.30
3348;DHT22;1687;49.540;8.574;2024-01-11T05:25:29;-3.50;61.10
3348;DHT22;1687;49.540;8.574;2024-01-11T05:27:59;-3.50;60.90
3348;DHT22;1687;49.540;8.574;2024-01-11T05:30:28;-3.60;60.60
3348;DHT22;1687;49.540;8.574;2024-01-11T05:32:55;-3.70;60.70
3348;DHT22;1687;49.540;8.574;2024-01-11T05:35:21;-3.80;60.70
3348;DHT22;1687;49.540;8.574;2024-01-11T05:37:49;-3.80;61.00
3348;DHT22;1687;49.540;8.574;2024-01-11T05:40:16;-3.70;61.20
3348;DHT22;1687;49.540;8.574;2024-01-11T05:42:41;-3.70;61.10
3348;DHT22;1687;49.540;8.574;2024-01-11T05:45:07;-3.80;60.90
3348;DHT22;1687;49.540;8.574;2024-01-11T05:47:33;-3.90;60.80
3348;DHT22;1687;49.540;8.574;2024-01-11T05:49:59;-3.90;60.90
3348;DHT22;1687;49.540;8.574;2024-01-11T05:52:25;-3.90;61.10
3348;DHT22;1687;49.540;8.574;2024-01-11T05:54:50;-4.00;60.90
3348;DHT22;1687;49.540;8.574;2024-01-11T05:57:16;-4.10;60.80
3348;DHT22;1687;49.540;8.574;2024-01-11T05:59:45;-4.10;61.00
3348;DHT22;1687;49.540;8.574;2024-01-11T06:02:12;-4.10;61.20
3348;DHT22;1687;49.540;8.574;2024-01-11T06:04:39;-4.10;61.40
3348;DHT22;1687;49.540;8.574;2024-01-11T06:07:04;-4.10;61.30
3348;DHT22;1687;49.540;8.574;2024-01-11T06:09:30;-4.00;61.50
3348;DHT22;1687;49.540;8.574;2024-01-11T06:11:56;-4.00;61.70
3348;DHT22;1687;49.540;8.574;2024-01-11T06:14:21;-4.00;61.60
3348;DHT22;1687;49.540;8.574;2024-01-11T06:16:47;-4.00;61.60
3348;DHT22;1687;49.540;8.574;2024-01-11T06:19:13;-4.10;61.50
3348;DHT22;1687;49.540;8.574;2024-01-11T06:21:38;-4.10;61.50
3348;DHT22;1687;49.540;8.574;2024-01-11T06:24:04;-4.10;61.50
3348;DHT22;1687;49.540;8.574;2024-01-11T06:26:30;-4.20;61.40
3348;DHT22;1687;49.540;8.574;2024-01-11T06:28:56;-4.20;61.70
3348;DHT22;1687;49.540;8.574;2024-01-11T06:31:21;-4.20;61.70
3348;DHT22;1687;49.540;8.574;2024-01-11T06:33:47;-4.20;61.90
3348;DHT22;1687;49.540;8.574;2024-01-11T06:36:13;-4.20;61.90
3348;DHT22;1687;49.540;8.574;2024-01-11T06:38:38;-4.20;61.90
3348;DHT22;1687;49.540;8.574;2024-01-11T06:41:04;-4.20;62.00
3348;DHT22;1687;49.540;8.574;2024-01-11T06:43:30;-4.20;61.90
3348;DHT22;1687;49.540;8.574;2024-01-11T06:45:56;-4.20;62.00
3348;DHT22;1687;49.540;8.574;2024-01-11T06:48:21;-4.20;62.20
3348;DHT22;1687;49.540;8.574;2024-01-11T06:50:47;-4.20;62.40
3348;DHT22;1687;49.540;8.574;2024-01-11T06:53:13;-4.10;62.40
3348;DHT22;1687;49.540;8.574;2024-01-11T06:55:38;-4.10;62.50
3348;DHT22;1687;49.540;8.574;2024-01-11T06:58:06;-4.10;62.40
3348;DHT22;1687;49.540;8.574;2024-01-11T07:00:32;-4.20;62.20
3348;DHT22;1687;49.540;8.574;2024-01-11T07:02:57;-4.20;62.40
3348;DHT22;1687;49.540;8.574;2024-01-11T07:05:23;-4.20;62.70
3348;DHT22;1687;49.540;8.574;2024-01-11T07:07:49;-4.10;62.70
3348;DHT22;1687;49.540;8.574;2024-01-11T07:10:14;-4.20;62.50
3348;DHT22;1687;49.540;8.574;2024-01-11T07:12:40;-4.20;62.50
3348;DHT22;1687;49.540;8.574;2024-01-11T07:15:08;-4.30;62.60
3348;DHT22;1687;49.540;8.574;2024-01-11T07:17:34;-4.30;62.50
3348;DHT22;1687;49.540;8.574;2024-01-11T07:20:00;-4.30;62.60
3348;DHT22;1687;49.540;8.574;2024-01-11T07:22:26;-4.30;62.70
3348;DHT22;1687;49.540;8.574;2024-01-11T07:24:52;-4.30;63.00
3348;DHT22;1687;49.540;8.574;2024-01-11T07:27:17;-4.20;63.10
3348;DHT22;1687;49.540;8.574;2024-01-11T07:29:43;-4.20;63.10
3348;DHT22;1687;49.540;8.574;2024-01-11T07:32:09;-4.20;63.20
3348;DHT22;1687;49.540;8.574;2024-01-11T07:34:35;-4.10;63.20
3348;DHT22;1687;49.540;8.574;2024-01-11T07:37:01;-4.10;63.30
3348;DHT22;1687;49.540;8.574;2024-01-11T07:39:27;-4.00;63.70
3348;DHT22;1687;49.540;8.574;2024-01-11T07:41:53;-4.00;63.40
3348;DHT22;1687;49.540;8.574;2024-01-11T07:44:18;-4.00;63.40
3348;DHT22;1687;49.540;8.574;2024-01-11T07:46:45;-4.00;63.40
3348;DHT22;1687;49.540;8.574;2024-01-11T07:49:11;-3.90;63.60
3348;DHT22;1687;49.540;8.574;2024-01-11T07:51:36;-3.90;63.70
3348;DHT22;1687;49.540;8.574;2024-01-11T07:54:03;-3.90;63.70
3348;DHT22;1687;49.540;8.574;2024-01-11T07:56:29;-3.90;63.50
3348;DHT22;1687;49.540;8.574;2024-01-11T07:58:55;-3.80;63.90
3348;DHT22;1687;49.540;8.574;2024-01-11T08:01:20;-3.80;63.90
3348;DHT22;1687;49.540;8.574;2024-01-11T08:03:46;-3.80;63.90
3348;DHT22;1687;49.540;8.574;2024-01-11T08:06:13;-3.80;63.80
3348;DHT22;1687;49.540;8.574;2024-01-11T08:08:38;-3.70;64.00
3348;DHT22;1687;49.540;8.574;2024-01-11T08:11:05;-3.60;64.00
3348;DHT22;1687;49.540;8.574;2024-01-11T08:13:32;-3.60;64.10
3348;DHT22;1687;49.540;8.574;2024-01-11T08:16:00;-3.50;64.20
3348;DHT22;1687;49.540;8.574;2024-01-11T08:18:28;-3.50;64.20
3348;DHT22;1687;49.540;8.574;2024-01-11T08:20:55;-3.40;64.40
3348;DHT22;1687;49.540;8.574;2024-01-11T08:23:20;-3.30;64.60
3348;DHT22;1687;49.540;8.574;2024-01-11T08:25:46;-3.30;64.70
3348;DHT22;1687;49.540;8.574;2024-01-11T08:28:12;-3.20;64.60
3348;DHT22;1687;49.540;8.574;2024-01-11T08:30:38;-3.10;64.60
3348;DHT22;1687;49.540;8.574;2024-01-11T08:33:03;-3.10;64.60
3348;DHT22;1687;49.540;8.574;2024-01-11T08:35:29;-3.10;64.50
3348;DHT22;1687;49.540;8.574;2024-01-11T08:37:57;-3.10;64.40
3348;DHT22;1687;49.540;8.574;2024-01-11T08:40:23;-3.10;64.50
3348;DHT22;1687;49.540;8.574;2024-01-11T08:42:49;-3.10;64.70
3348;DHT22;1687;49.540;8.574;2024-01-11T08:45:17;-3.10;64.70
3348;DHT22;1687;49.540;8.574;2024-01-11T08:47:46;-3.00;64.80
3348;DHT22;1687;49.540;8.574;2024-01-11T08:50:15;-2.90;64.90
3348;DHT22;1687;49.540;8.574;2024-01-11T08:52:42;-2.90;64.70
3348;DHT22;1687;49.540;8.574;2024-01-11T08:55:08;-2.80;65.00
3348;DHT22;1687;49.540;8.574;2024-01-11T08:57:34;-2.80;65.00
3348;DHT22;1687;49.540;8.574;2024-01-11T09:00:04;-2.70;65.00
3348;DHT22;1687;49.540;8.574;2024-01-11T09:02:31;-2.60;65.20
3348;DHT22;1687;49.540;8.574;2024-01-11T09:04:57;-2.50;65.10
3348;DHT22;1687;49.540;8.574;2024-01-11T09:07:23;-2.40;65.40
3348;DHT22;1687;49.540;8.574;2024-01-11T09:09:48;-2.30;65.10
3348;DHT22;1687;49.540;8.574;2024-01-11T09:12:14;-2.30;65.30
3348;DHT22;1687;49.540;8.574;2024-01-11T09:14:40;-2.20;65.40
3348;DHT22;1687;49.540;8.574;2024-01-11T09:17:05;-2.10;65.50
3348;DHT22;1687;49.540;8.574;2024-01-11T09:22:08;-2.00;65.60
3348;DHT22;1687;49.540;8.574;2024-01-11T09:24:35;-1.90;65.60
3348;DHT22;1687;49.540;8.574;2024-01-11T09:27:01;-1.90;65.30
3348;DHT22;1687;49.540;8.574;2024-01-11T09:29:28;-1.80;65.30
3348;DHT22;1687;49.540;8.574;2024-01-11T09:31:54;-1.70;65.60
3348;DHT22;1687;49.540;8.574;2024-01-11T09:34:19;-1.70;65.40
3348;DHT22;1687;49.540;8.574;2024-01-11T09:36:45;-1.60;65.60
3348;DHT22;1687;49.540;8.574;2024-01-11T09:39:11;-1.50;65.90
3348;DHT22;1687;49.540;8.574;2024-01-11T09:41:42;-1.40;66.00
3348;DHT22;1687;49.540;8.574;2024-01-11T09:44:09;-1.30;65.90
3348;DHT22;1687;49.540;8.574;2024-01-11T09:46:35;-1.20;65.90
3348;DHT22;1687;49.540;8.574;2024-01-11T09:49:02;-1.10;65.90
3348;DHT22;1687;49.540;8.574;2024-01-11T09:51:32;-1.10;65.70
3348;DHT22;1687;49.540;8.574;2024-01-11T09:53:59;-1.00;65.90
3348;DHT22;1687;49.540;8.574;2024-01-11T09:56:26;-1.00;65.70
3348;DHT22;1687;49.540;8.574;2024-01-11T09:58:53;-0.90;65.80
3348;DHT22;1687;49.540;8.574;2024-01-11T10:01:19;-0.90;65.90
3348;DHT22;1687;49.540;8.574;2024-01-11T10:03:45;-0.80;66.00
3348;DHT22;1687;49.540;8.574;2024-01-11T10:06:14;-0.70;66.20
3348;DHT22;1687;49.540;8.574;2024-01-11T10:08:41;-0.60;66.20
3348;DHT22;1687;49.540;8.574;2024-01-11T10:11:06;-0.40;66.40
3348;DHT22;1687;49.540;8.574;2024-01-11T10:13:33;-0.30;66.40
3348;DHT22;1687;49.540;8.574;2024-01-11T10:16:07;-0.10;66.60
3348;DHT22;1687;49.540;8.574;2024-01-11T10:18:35;0.10;66.60
3348;DHT22;1687;49.540;8.574;2024-01-11T10:21:01;0.30;66.80
3348;DHT22;1687;49.540;8.574;2024-01-11T10:23:28;0.40;66.70
3348;DHT22;1687;49.540;8.574;2024-01-11T10:25:56;0.60;66.80
3348;DHT22;1687;49.540;8.574;2024-01-11T10:28:23;0.80;67.00
3348;DHT22;1687;49.540;8.574;2024-01-11T10:30:51;1.00;67.10
3348;DHT22;1687;49.540;8.574;2024-01-11T10:33:20;1.10;66.80
3348;DHT22;1687;49.540;8.574;2024-01-11T10:35:47;1.10;66.30
3348;DHT22;1687;49.540;8.574;2024-01-11T10:38:14;1.10;66.60
3348;DHT22;1687;49.540;8.574;2024-01-11T10:40:40;1.20;66.30
3348;DHT22;1687;49.540;8.574;2024-01-11T10:43:09;1.20;66.30
3348;DHT22;1687;49.540;8.574;2024-01-11T10:45:41;1.20;66.30
3348;DHT22;1687;49.540;8.574;2024-01-11T10:48:13;1.20;66.20
3348;DHT22;1687;49.540;8.574;2024-01-11T10:50:42;1.20;66.00
3348;DHT22;1687;49.540;8.574;2024-01-11T10:53:46;1.30;66.40
3348;DHT22;1687;49.540;8.574;2024-01-11T10:56:14;1.40;66.50
3348;DHT22;1687;49.540;8.574;2024-01-11T10:58:44;1.50;66.50
3348;DHT22;1687;49.540;8.574;2024-01-11T11:01:12;1.60;66.50
3348;DHT22;1687;49.540;8.574;2024-01-11T11:03:38;1.70;66.40
3348;DHT22;1687;49.540;8.574;2024-01-11T11:06:06;1.70;66.10
3348;DHT22;1687;49.540;8.574;2024-01-11T11:08:33;1.70;66.00
3348;DHT22;1687;49.540;8.574;2024-01-11T11:11:02;1.70;66.00
3348;DHT22;1687;49.540;8.574;2024-01-11T11:13:31;1.80;66.20
3348;DHT22;1687;49.540;8.574;2024-01-11T11:15:57;1.80;65.90
3348;DHT22;1687;49.540;8.574;2024-01-11T11:18:24;1.80;65.70
3348;DHT22;1687;49.540;8.574;2024-01-11T11:20:50;1.80;65.70
3348;DHT22;1687;49.540;8.574;2024-01-11T11:23:18;1.80;65.50
3348;DHT22;1687;49.540;8.574;2024-01-11T11:25:48;1.80;65.60
3348;DHT22;1687;49.540;8.574;2024-01-11T11:28:16;1.90;65.90
3348;DHT22;1687;49.540;8.574;2024-01-11T11:30:43;2.00;65.80
3348;DHT22;1687;49.540;8.574;2024-01-11T11:33:20;2.10;65.90
3348;DHT22;1687;49.540;8.574;2024-01-11T11:35:47;2.20;65.90
3348;DHT22;1687;49.540;8.574;2024-01-11T11:38:24;2.40;65.90
3348;DHT22;1687;49.540;8.574;2024-01-11T11:40:53;2.40;65.40
3348;DHT22;1687;49.540;8.574;2024-01-11T11:43:22;2.30;65.30
3348;DHT22;1687;49.540;8.574;2024-01-11T11:45:50;2.20;65.00
3348;DHT22;1687;49.540;8.574;2024-01-11T11:53:36;2.30;65.20
3348;DHT22;1687;49.540;8.574;2024-01-11T11:56:03;2.30;65.00
3348;DHT22;1687;49.540;8.574;2024-01-11T11:58:30;2.30;65.10
3348;DHT22;1687;49.540;8.574;2024-01-11T12:00:58;2.40;65.30
3348;DHT22;1687;49.540;8.574;2024-01-11T12:03:35;2.50;64.90
3348;DHT22;1687;49.540;8.574;2024-01-11T12:06:03;2.50;65.00
3348;DHT22;1687;49.540;8.574;2024-01-11T12:08:33;2.50;64.80
3348;DHT22;1687;49.540;8.574;2024-01-11T12:10:59;2.60;64.80
3348;DHT22;1687;49.540;8.574;2024-01-11T12:13:26;2.60;64.80
3348;DHT22;1687;49.540;8.574;2024-01-11T12:15:52;2.60;64.60
3348;DHT22;1687;49.540;8.574;2024-01-11T12:18:17;2.60;64.60
3348;DHT22;1687;49.540;8.574;2024-01-11T12:20:44;2.70;64.40
3348;DHT22;1687;49.540;8.574;2024-01-11T12:23:10;2.60;64.30
3348;DHT22;1687;49.540;8.574;2024-01-11T12:25:36;2.60;64.40
3348;DHT22;1687;49.540;8.574;2024-01-11T12:28:02;2.60;64.20
3348;DHT22;1687;49.540;8.574;2024-01-11T12:30:28;2.60;64.10
3348;DHT22;1687;49.540;8.574;2024-01-11T12:32:55;2.60;64.00
3348;DHT22;1687;49.540;8.574;2024-01-11T12:35:22;2.60;64.20
3348;DHT22;1687;49.540;8.574;2024-01-11T12:38:05;2.60;64.10
3348;DHT22;1687;49.540;8.574;2024-01-11T12:40:37;2.70;64.20
3348;DHT22;1687;49.540;8.574;2024-01-11T12:43:04;2.80;64.10
3348;DHT22;1687;49.540;8.574;2024-01-11T12:45:31;2.80;63.90
3348;DHT22;1687;49.540;8.574;2024-01-11T12:48:01;2.80;64.00
3348;DHT22;1687;49.540;8.574;2024-01-11T12:50:29;2.80;63.70
3348;DHT22;1687;49.540;8.574;2024-01-11T12:53:15;2.90;63.90
3348;DHT22;1687;49.540;8.574;2024-01-11T12:55:44;3.00;64.00
3348;DHT22;1687;49.540;8.574;2024-01-11T12:58:11;3.10;64.00
3348;DHT22;1687;49.540;8.574;2024-01-11T13:00:37;3.10;63.80
3348;DHT22;1687;49.540;8.574;2024-01-11T13:03:07;3.20;63.70
3348;DHT22;1687;49.540;8.574;2024-01-11T13:05:35;3.20;63.60
3348;DHT22;1687;49.540;8.574;2024-01-11T13:08:02;3.20;63.50
3348;DHT22;1687;49.540;8.574;2024-01-11T13:10:29;3.30;63.70
3348;DHT22;1687;49.540;8.574;2024-01-11T13:12:57;3.30;63.50
3348;DHT22;1687;49.540;8.574;2024-01-11T13:15:23;3.30;63.30
3348;DHT22;1687;49.540;8.574;2024-01-11T13:17:49;3.30;63.30
3348;DHT22;1687;49.540;8.574;2024-01-11T13:20:15;3.40;63.40
3348;DHT22;1687;49.540;8.574;2024-01-11T13:22:41;3.30;63.00
3348;DHT22;1687;49.540;8.574;2024-01-11T13:25:07;3.30;62.90
3348;DHT22;1687;49.540;8.574;2024-01-11T13:27:33;3.20;62.70
3348;DHT22;1687;49.540;8.574;2024-01-11T13:29:58;3.20;62.70
3348;DHT22;1687;49.540;8.574;2024-01-11T13:32:24;3.10;62.40
3348;DHT22;1687;49.540;8.574;2024-01-11T13:34:50;3.00;62.50
3348;DHT22;1687;49.540;8.574;2024-01-11T13:37:18;3.00;62.40
3348;DHT22;1687;49.540;8.574;2024-01-11T13:39:45;3.00;62.50
3348;DHT22;1687;49.540;8.574;2024-01-11T13:42:11;3.00;62.60
3348;DHT22;1687;49.540;8.574;2024-01-11T13:44:38;3.00;62.60
3348;DHT22;1687;49.540;8.574;2024-01-11T13:47:04;3.10;62.70
3348;DHT22;1687;49.540;8.574;2024-01-11T13:49:30;3.10;62.50
3348;DHT22;1687;49.540;8.574;2024-01-11T13:51:56;3.10;62.30
3348;DHT22;1687;49.540;8.574;2024-01-11T13:54:22;3.10;62.30
3348;DHT22;1687;49.540;8.574;2024-01-11T13:56:48;3.10;62.20
3348;DHT22;1687;49.540;8.574;2024-01-11T13:59:14;3.00;62.10
3348;DHT22;1687;49.540;8.574;2024-01-11T14:01:39;3.10;62.20
3348;DHT22;1687;49.540;8.574;2024-01-11T14:04:05;3.00;61.90
3348;DHT22;1687;49.540;8.574;2024-01-11T14:06:31;3.00;61.90
3348;DHT22;1687;49.540;8.574;2024-01-11T14:08:57;3.00;62.00
3348;DHT22;1687;49.540;8.574;2024-01-11T14:11:22;3.00;62.00
3348;DHT22;1687;49.540;8.574;2024-01-11T14:13:48;3.00;62.00
3348;DHT22;1687;49.540;8.574;2024-01-11T14:16:14;3.00;62.00
3348;DHT22;1687;49.540;8.574;2024-01-11T14:18:41;3.00;61.90
3348;DHT22;1687;49.540;8.574;2024-01-11T14:21:07;3.00;61.70
3348;DHT22;1687;49.540;8.574;2024-01-11T14:23:34;3.00;61.60
3348;DHT22;1687;49.540;8.574;2024-01-11T14:25:59;3.00;61.70
3348;DHT22;1687;49.540;8.574;2024-01-11T14:28:25;3.00;61.90
3348;DHT22;1687;49.540;8.574;2024-01-11T14:30:50;3.00;61.70
3348;DHT22;1687;49.540;8.574;2024-01-11T14:33:16;3.00;61.60
3348;DHT22;1687;49.540;8.574;2024-01-11T14:35:42;3.00;61.70
3348;DHT22;1687;49.540;8.574;2024-01-11T14:38:08;3.10;61.70
3348;DHT22;1687;49.540;8.574;2024-01-11T14:40:34;3.10;61.60
3348;DHT22;1687;49.540;8.574;2024-01-11T14:43:00;3.10;61.60
3348;DHT22;1687;49.540;8.574;2024-01-11T14:45:25;3.20;61.60
3348;DHT22;1687;49.540;8.574;2024-01-11T14:47:52;3.30;61.60
3348;DHT22;1687;49.540;8.574;2024-01-11T14:50:18;3.30;61.40
3348;DHT22;1687;49.540;8.574;2024-01-11T14:52:45;3.40;61.50
3348;DHT22;1687;49.540;8.574;2024-01-11T14:55:10;3.40;61.50
3348;DHT22;1687;49.540;8.574;2024-01-11T14:57:38;3.40;61.40
3348;DHT22;1687;49.540;8.574;2024-01-11T15:00:05;3.40;61.50
3348;DHT22;1687;49.540;8.574;2024-01-11T15:02:33;3.50;61.40
3348;DHT22;1687;49.540;8.574;2024-01-11T15:04:59;3.50;61.40
3348;DHT22;1687;49.540;8.574;2024-01-11T15:07:25;3.60;61.40
3348;DHT22;1687;49.540;8.574;2024-01-11T15:09:51;3.60;61.30
3348;DHT22;1687;49.540;8.574;2024-01-11T15:12:16;3.60;61.30
3348;DHT22;1687;49.540;8.574;2024-01-11T15:14:42;3.60;61.10
3348;DHT22;1687;49.540;8.574;2024-01-11T15:17:08;3.50;61.10
3348;DHT22;1687;49.540;8.574;2024-01-11T15:19:34;3.40;60.90
3348;DHT22;1687;49.540;8.574;2024-01-11T15:22:00;3.40;60.90
3348;DHT22;1687;49.540;8.574;2024-01-11T15:24:25;3.40;60.80
3348;DHT22;1687;49.540;8.574;2024-01-11T15:26:53;3.20;60.70
3348;DHT22;1687;49.540;8.574;2024-01-11T15:29:18;3.20;60.70
3348;DHT22;1687;49.540;8.574;2024-01-11T15:31:44;3.10;60.50
3348;DHT22;1687;49.540;8.574;2024-01-11T15:34:11;3.00;60.60
3348;DHT22;1687;49.540;8.574;2024-01-11T15:36:38;2.90;60.50
3348;DHT22;1687;49.540;8.574;2024-01-11T15:39:05;2.80;60.30
3348;DHT22;1687;49.540;8.574;2024-01-11T15:41:31;2.80;60.30
3348;DHT22;1687;49.540;8.574;2024-01-11T15:43:57;2.70;60.30
3348;DHT22;1687;49.540;8.574;2024-01-11T15:46:24;2.70;60.30
3348;DHT22;1687;49.540;8.574;2024-01-11T15:48:50;2.50;60.20
3348;DHT22;1687;49.540;8.574;2024-01-11T15:51:15;2.50;60.20
3348;DHT22;1687;49.540;8.574;2024-01-11T15:53:41;2.50;60.10
3348;DHT22;1687;49.540;8.574;2024-01-11T15:56:07;2.30;59.90
3348;DHT22;1687;49.540;8.574;2024-01-11T15:58:33;2.20;59.90
3348;DHT22;1687;49.540;8.574;2024-01-11T16:00:59;2.10;59.90
3348;DHT22;1687;49.540;8.574;2024-01-11T16:03:24;2.10;60.00
3348;DHT22;1687;49.540;8.574;2024-01-11T16:05:50;2.00;59.80
3348;DHT22;1687;49.540;8.574;2024-01-11T16:08:16;2.00;60.60
3348;DHT22;1687;49.540;8.574;2024-01-11T16:10:41;2.00;60.00